createdAt,value
2019-05-26T00:00:39.210Z,0.0
2019-05-26T00:01:39.110Z,0.0
2019-05-26T00:02:39.121Z,0.0
2019-05-26T00:03:39.137Z,0.4
2019-05-26T00:04:39.149Z,0.2
2019-05-26T00:05:39.163Z,0.4
2019-05-26T00:07:39.192Z,0.0
2019-05-26T00:08:39.201Z,0.8
2019-05-26T00:09:39.224Z,0.0
2019-05-26T00:10:39.235Z,0.0
2019-05-26T00:12:39.334Z,0.0
2019-05-26T00:13:39.292Z,0.4
2019-05-26T00:14:39.320Z,0.8
2019-05-26T00:15:39.339Z,0.8
2019-05-26T00:17:39.404Z,0.0
2019-05-26T00:18:33.006Z,0.0
2019-05-26T00:19:29.445Z,0.0
2019-05-26T00:20:29.443Z,0.0
2019-05-26T00:21:39.454Z,0.8
2019-05-26T00:22:39.472Z,0.8
2019-05-26T00:23:39.488Z,0.6
2019-05-26T00:24:39.497Z,0.2
2019-05-26T00:25:39.512Z,0.0
2019-05-26T00:27:39.652Z,0.0
2019-05-26T00:28:39.695Z,0.0
2019-05-26T00:29:39.728Z,0.0
2019-05-26T00:30:39.773Z,0.0
2019-05-26T00:32:39.779Z,0.0
2019-05-26T00:33:39.827Z,0.0
2019-05-26T00:34:39.805Z,0.0
2019-05-26T00:35:39.845Z,0.0
2019-05-26T00:37:48.904Z,0.0
2019-05-26T00:38:39.924Z,0.0
2019-05-26T00:39:39.934Z,0.0
2019-05-26T00:40:39.953Z,0.0
2019-05-26T00:42:40.030Z,0.0
2019-05-26T00:43:40.179Z,0.6
2019-05-26T00:44:40.191Z,0.8
2019-05-26T00:45:40.247Z,0.8
2019-05-26T00:47:40.292Z,1.3
2019-05-26T00:48:40.349Z,1.8
2019-05-26T00:49:40.334Z,1.1
2019-05-26T00:50:40.405Z,1.1
2019-05-26T00:52:40.398Z,1.5
2019-05-26T00:53:40.436Z,1.3
2019-05-26T00:54:40.444Z,0.8
2019-05-26T00:55:40.471Z,1.0
2019-05-26T00:57:40.484Z,1.1
2019-05-26T00:58:40.538Z,1.4
2019-05-26T00:59:40.555Z,0.9
2019-05-26T01:00:40.570Z,1.3
2019-05-26T01:02:40.597Z,0.8
2019-05-26T01:03:40.609Z,0.6
2019-05-26T01:04:40.636Z,1.0
2019-05-26T01:05:40.667Z,1.1
2019-05-26T01:06:52.034Z,0.8
2019-05-26T01:07:40.682Z,0.9
2019-05-26T01:08:40.698Z,1.4
2019-05-26T01:09:40.768Z,0.9
2019-05-26T01:10:40.823Z,0.8
2019-05-26T01:11:50.840Z,0.8
2019-05-26T01:12:40.861Z,1.1
2019-05-26T01:13:40.874Z,1.1
2019-05-26T01:14:40.883Z,1.0
2019-05-26T01:15:40.893Z,1.2
2019-05-26T01:17:42.086Z,1.0
2019-05-26T01:18:40.941Z,1.0
2019-05-26T01:19:41.010Z,0.8
2019-05-26T01:20:41.019Z,1.0
2019-05-26T01:22:41.084Z,0.9
2019-05-26T01:23:41.056Z,0.8
2019-05-26T01:24:41.248Z,0.8
2019-05-26T01:25:41.212Z,0.8
2019-05-26T01:27:41.280Z,0.0
2019-05-26T01:28:42.507Z,0.0
2019-05-26T01:29:41.391Z,0.0
2019-05-26T01:30:41.411Z,0.6
2019-05-26T01:31:51.394Z,0.6
2019-05-26T01:32:41.400Z,0.9
2019-05-26T01:33:41.451Z,0.2
2019-05-26T01:34:41.485Z,0.0
2019-05-26T01:35:41.493Z,0.0
2019-05-26T01:37:41.541Z,0.0
2019-05-26T01:38:41.623Z,0.4
2019-05-26T01:39:42.059Z,0.6
2019-05-26T01:40:41.624Z,0.2
2019-05-26T01:47:01.862Z,0.8
2019-05-26T01:49:41.945Z,0.8
2019-05-26T01:52:02.014Z,0.0
2019-05-26T01:54:52.157Z,0.6
2019-05-26T01:57:42.182Z,0.0
2019-05-26T02:02:02.809Z,0.0
2019-05-26T02:03:02.391Z,0.0
2019-05-26T02:04:02.373Z,0.0
2019-05-26T02:05:02.479Z,0.0
2019-05-26T02:06:12.512Z,0.0
2019-05-26T02:07:12.511Z,0.0
2019-05-26T02:12:02.683Z,0.8
2019-05-26T02:13:03.938Z,0.2
2019-05-26T02:14:02.837Z,0.8
2019-05-26T02:15:02.855Z,0.8
2019-05-26T02:16:02.895Z,0.0
2019-05-26T02:17:02.895Z,0.2
2019-05-26T02:20:42.955Z,0.8
2019-05-26T02:22:42.977Z,0.4
2019-05-26T02:23:43.469Z,0.0
2019-05-26T02:24:43.012Z,0.8
2019-05-26T02:25:43.053Z,0.6
2019-05-26T02:32:03.241Z,0.0
2019-05-26T02:37:03.578Z,0.0
2019-05-26T02:42:43.553Z,0.0
2019-05-26T02:43:43.626Z,0.0
2019-05-26T02:44:43.585Z,0.0
2019-05-26T02:51:03.911Z,0.0
2019-05-26T02:52:03.930Z,0.0
2019-05-26T02:56:04.115Z,0.0
2019-05-26T02:57:44.121Z,0.0
2019-05-26T02:58:44.177Z,0.0
2019-05-26T02:59:44.189Z,0.0
2019-05-26T03:06:04.309Z,0.0
2019-05-26T03:07:04.317Z,0.0
2019-05-26T03:11:04.500Z,0.0
2019-05-26T03:12:04.510Z,0.0
2019-05-26T03:16:14.581Z,0.0
2019-05-26T03:17:04.597Z,0.0
2019-05-26T03:17:44.609Z,0.0
2019-05-26T03:18:44.617Z,0.4
2019-05-26T03:19:44.635Z,0.0
2019-05-26T03:21:04.809Z,0.0
2019-05-26T03:22:04.668Z,0.0
2019-05-26T03:26:14.744Z,0.0
2019-05-26T03:27:04.755Z,0.0
2019-05-26T03:27:44.763Z,0.0
2019-05-26T03:28:44.812Z,0.0
2019-05-26T03:29:44.835Z,0.0
2019-05-26T03:31:04.900Z,0.0
2019-05-26T03:32:05.749Z,0.0
2019-05-26T03:33:55.043Z,0.0
2019-05-26T03:36:15.029Z,0.0
2019-05-26T03:37:05.055Z,0.0
2019-05-26T03:37:45.065Z,0.0
2019-05-26T03:38:45.123Z,0.2
2019-05-26T03:39:46.259Z,0.8
2019-05-26T03:41:05.168Z,0.2
2019-05-26T03:42:05.202Z,0.0
2019-05-26T03:42:55.335Z,0.0
2019-05-26T03:44:55.259Z,0.0
2019-05-26T03:46:15.306Z,0.4
2019-05-26T03:47:05.352Z,0.2
2019-05-26T03:47:45.347Z,0.0
2019-05-26T03:48:45.411Z,0.0
2019-05-26T03:49:45.482Z,0.0
2019-05-26T03:51:05.579Z,0.0
2019-05-26T03:52:05.554Z,0.0
2019-05-26T03:52:45.530Z,0.4
2019-05-26T03:53:45.822Z,0.0
2019-05-26T03:54:45.739Z,0.2
2019-05-26T03:56:05.768Z,0.4
2019-05-26T03:57:15.758Z,0.8
2019-05-26T04:01:15.836Z,0.2
2019-05-26T04:02:15.908Z,0.8
2019-05-26T04:04:56.082Z,0.0
2019-05-26T04:06:15.949Z,0.0
2019-05-26T04:07:15.972Z,0.0
2019-05-26T04:11:06.172Z,0.0
2019-05-26T04:12:06.205Z,0.0
2019-05-26T04:16:06.397Z,0.0
2019-05-26T04:17:06.303Z,0.0
2019-05-26T04:21:06.378Z,0.0
2019-05-26T04:22:06.391Z,0.0
2019-05-26T04:26:06.499Z,0.8
2019-05-26T04:27:06.638Z,0.6
2019-05-26T04:31:06.701Z,0.6
2019-05-26T04:32:06.700Z,0.0
2019-05-26T04:36:06.888Z,0.0
2019-05-26T04:37:06.904Z,0.0
2019-05-26T04:41:07.067Z,0.0
2019-05-26T04:42:07.091Z,0.0
2019-05-26T04:42:47.103Z,0.0
2019-05-26T04:43:47.112Z,0.0
2019-05-26T04:44:47.173Z,0.0
2019-05-26T04:47:47.203Z,0.0
2019-05-26T04:48:37.216Z,0.0
2019-05-26T04:49:37.911Z,0.0
2019-05-26T04:50:47.289Z,0.0
2019-05-26T04:51:47.309Z,0.0
2019-05-26T04:52:37.421Z,0.0
2019-05-26T04:53:37.373Z,0.0
2019-05-26T04:54:37.438Z,0.0
2019-05-26T04:57:37.516Z,0.0
2019-05-26T04:58:37.538Z,0.0
2019-05-26T04:59:37.698Z,0.0
2019-05-26T05:02:47.614Z,0.6
2019-05-26T05:03:37.620Z,0.2
2019-05-26T05:04:37.719Z,0.0
2019-05-26T05:07:37.861Z,0.0
2019-05-26T05:08:37.909Z,0.6
2019-05-26T05:09:38.005Z,0.6
2019-05-26T05:12:47.991Z,0.8
2019-05-26T05:13:38.017Z,0.2
2019-05-26T05:14:38.081Z,0.0
2019-05-26T05:17:38.143Z,0.0
2019-05-26T05:18:38.159Z,0.0
2019-05-26T05:19:38.177Z,0.0
2019-05-26T05:26:18.386Z,0.0
2019-05-26T05:27:18.380Z,0.2
2019-05-26T05:31:48.524Z,0.8
2019-05-26T05:32:32.585Z,0.6
2019-05-26T05:36:48.704Z,0.0
2019-05-26T05:41:48.839Z,0.0
2019-05-26T05:42:48.855Z,0.0
2019-05-26T05:43:38.866Z,0.0
2019-05-26T05:44:38.878Z,0.0
2019-05-26T05:47:38.913Z,0.0
2019-05-26T05:48:38.921Z,0.8
2019-05-26T05:49:38.973Z,0.4
2019-05-26T05:52:49.020Z,0.0
2019-05-26T05:53:39.042Z,0.6
2019-05-26T05:54:39.146Z,0.0
2019-05-26T05:57:39.190Z,0.0
2019-05-26T05:58:39.197Z,0.0
2019-05-26T05:59:39.220Z,0.0
2019-05-26T06:02:49.277Z,0.0
2019-05-26T06:03:39.280Z,0.6
2019-05-26T06:04:39.410Z,0.8
2019-05-26T06:07:39.561Z,0.0
2019-05-26T06:08:39.557Z,0.0
2019-05-26T06:09:39.666Z,0.6
2019-05-26T06:12:49.756Z,0.8
2019-05-26T06:13:39.735Z,0.6
2019-05-26T06:14:40.046Z,0.8
2019-05-26T06:17:39.774Z,0.8
2019-05-26T06:18:39.773Z,0.8
2019-05-26T06:19:39.788Z,0.6
2019-05-26T06:22:49.856Z,1.1
2019-05-26T06:23:39.867Z,0.8
2019-05-26T06:24:39.945Z,0.9
2019-05-26T06:28:40.166Z,1.1
2019-05-26T06:29:40.165Z,0.8
2019-05-26T06:32:50.238Z,0.4
2019-05-26T06:33:40.230Z,0.0
2019-05-26T06:34:40.254Z,0.2
2019-05-26T06:37:40.337Z,0.8
2019-05-26T06:38:40.509Z,0.8
2019-05-26T06:39:40.382Z,0.2
2019-05-26T06:42:50.453Z,0.0
2019-05-26T06:43:40.472Z,0.0
2019-05-26T06:44:52.826Z,0.0
2019-05-26T06:47:40.592Z,0.0
2019-05-26T06:48:40.629Z,0.4
2019-05-26T06:49:41.915Z,0.8
2019-05-26T06:52:50.960Z,0.8
2019-05-26T06:54:41.035Z,0.2
2019-05-26T06:57:51.087Z,0.8
2019-05-26T06:59:41.123Z,0.8
2019-05-26T07:05:02.083Z,0.0
2019-05-26T07:06:21.491Z,0.8
2019-05-26T07:07:11.495Z,0.2
2019-05-26T07:07:51.525Z,0.0
2019-05-26T07:08:51.589Z,0.6
2019-05-26T07:09:51.612Z,0.4
2019-05-26T07:11:11.619Z,0.8
2019-05-26T07:12:02.835Z,0.8
2019-05-26T07:14:01.778Z,0.8
2019-05-26T07:15:01.811Z,0.6
2019-05-26T07:16:36.711Z,0.9
2019-05-26T07:17:11.828Z,1.2
2019-05-26T07:17:51.881Z,0.9
2019-05-26T07:18:51.864Z,0.8
2019-05-26T07:19:51.876Z,1.1
2019-05-26T07:21:11.903Z,1.0
2019-05-26T07:22:01.901Z,0.9
2019-05-26T07:23:01.959Z,0.2
2019-05-26T07:26:22.106Z,0.6
2019-05-26T07:27:12.112Z,0.2
2019-05-26T07:27:52.126Z,0.0
2019-05-26T07:28:52.143Z,0.0
2019-05-26T07:29:52.200Z,0.0
2019-05-26T07:31:12.164Z,0.0
2019-05-26T07:34:03.236Z,0.0
2019-05-26T07:34:52.313Z,0.0
2019-05-26T07:36:12.319Z,0.2
2019-05-26T07:36:52.347Z,0.6
2019-05-26T07:37:52.355Z,0.8
2019-05-26T07:38:52.370Z,0.8
2019-05-26T07:39:52.389Z,0.4
2019-05-26T07:41:12.429Z,0.4
2019-05-26T07:46:22.525Z,0.6
2019-05-26T07:47:12.529Z,0.6
2019-05-26T07:47:52.542Z,0.2
2019-05-26T07:48:52.546Z,0.0
2019-05-26T07:49:52.569Z,0.0
2019-05-26T07:51:12.584Z,0.0
2019-05-26T07:56:13.774Z,0.0
2019-05-26T07:56:52.759Z,0.4
2019-05-26T07:57:52.793Z,0.8
2019-05-26T07:58:52.814Z,0.0
2019-05-26T07:59:52.822Z,0.2
2019-05-26T08:01:12.845Z,0.8
2019-05-26T08:02:52.910Z,0.8
2019-05-26T08:03:52.943Z,0.4
2019-05-26T08:04:53.047Z,0.0
2019-05-26T08:06:13.061Z,0.8
2019-05-26T08:06:53.082Z,0.8
2019-05-26T08:07:53.240Z,0.2
2019-05-26T08:08:53.105Z,0.6
2019-05-26T08:09:53.118Z,0.8
2019-05-26T08:11:13.163Z,0.8
2019-05-26T08:13:53.243Z,0.8
2019-05-26T08:14:53.288Z,0.2
2019-05-26T08:16:13.308Z,0.2
2019-05-26T08:21:13.429Z,0.2
2019-05-26T08:21:54.608Z,0.6
2019-05-26T08:22:53.505Z,0.2
2019-05-26T08:23:53.525Z,0.0
2019-05-26T08:24:53.527Z,0.6
2019-05-26T08:26:13.589Z,0.8
2019-05-26T08:27:53.647Z,0.8
2019-05-26T08:31:23.875Z,0.4
2019-05-26T08:32:15.105Z,0.4
2019-05-26T08:32:53.861Z,0.0
2019-05-26T08:33:53.863Z,0.0
2019-05-26T08:34:53.877Z,0.2
2019-05-26T08:36:13.920Z,0.8
2019-05-26T08:38:53.939Z,0.4
2019-05-26T08:41:23.972Z,0.8
2019-05-26T08:42:26.627Z,0.8
2019-05-26T08:42:54.003Z,0.9
2019-05-26T08:43:54.016Z,0.8
2019-05-26T08:44:54.060Z,0.8
2019-05-26T08:46:14.077Z,0.4
2019-05-26T08:51:24.194Z,0.4
2019-05-26T08:52:24.213Z,0.8
2019-05-26T08:53:24.371Z,0.8
2019-05-26T08:54:24.302Z,1.0
2019-05-26T08:55:44.386Z,0.8
2019-05-26T09:00:54.492Z,0.6
2019-05-26T09:01:44.562Z,0.0
2019-05-26T09:02:44.579Z,0.6
2019-05-26T09:03:44.653Z,0.8
2019-05-26T09:04:44.613Z,0.8
2019-05-26T09:06:54.646Z,0.8
2019-05-26T09:07:54.726Z,0.8
2019-05-26T09:11:14.823Z,0.8
2019-05-26T09:11:54.854Z,0.8
2019-05-26T09:13:00.580Z,0.8
2019-05-26T09:13:54.888Z,1.0
2019-05-26T09:14:54.915Z,1.1
2019-05-26T09:16:15.878Z,0.8
2019-05-26T09:17:54.946Z,1.1
2019-05-26T09:18:54.963Z,1.2
2019-05-26T09:21:14.999Z,0.8
2019-05-26T09:21:55.012Z,0.6
2019-05-26T09:22:55.022Z,1.1
2019-05-26T09:23:55.069Z,0.8
2019-05-26T09:24:55.115Z,1.1
2019-05-26T09:26:15.101Z,0.8
2019-05-26T09:27:45.169Z,0.6
2019-05-26T09:28:45.314Z,0.0
2019-05-26T09:29:45.219Z,0.0
2019-05-26T09:31:45.394Z,0.9
2019-05-26T09:32:45.444Z,1.1
2019-05-26T09:33:45.413Z,1.6
2019-05-26T09:34:45.529Z,1.9
2019-05-26T09:40:55.670Z,1.0
2019-05-26T09:41:35.778Z,1.3
2019-05-26T09:44:35.944Z,1.8
2019-05-26T09:45:55.885Z,0.6
2019-05-26T09:46:25.825Z,0.8
2019-05-26T09:47:25.881Z,0.8
2019-05-26T09:48:25.851Z,0.8
2019-05-26T09:49:25.859Z,0.8
2019-05-26T09:50:45.890Z,0.8
2019-05-26T09:51:26.073Z,0.8
2019-05-26T09:52:25.915Z,0.9
2019-05-26T09:53:26.068Z,0.9
2019-05-26T09:54:26.123Z,0.8
2019-05-26T09:56:26.090Z,1.2
2019-05-26T09:57:26.137Z,1.5
2019-05-26T09:58:26.257Z,1.8
2019-05-26T09:59:26.218Z,0.8
2019-05-26T10:00:46.285Z,0.9
2019-05-26T10:01:26.278Z,0.9
2019-05-26T10:02:27.094Z,0.8
2019-05-26T10:03:26.437Z,0.8
2019-05-26T10:04:26.469Z,0.8
2019-05-26T10:05:46.516Z,0.8
2019-05-26T10:06:26.581Z,0.6
2019-05-26T10:07:26.661Z,0.6
2019-05-26T10:08:46.862Z,0.6
2019-05-26T10:09:26.831Z,1.1
2019-05-26T10:10:26.850Z,1.1
2019-05-26T10:11:46.894Z,1.0
2019-05-26T10:12:26.891Z,1.0
2019-05-26T10:13:31.570Z,0.6
2019-05-26T10:14:26.939Z,0.6
2019-05-26T10:15:26.961Z,0.4
2019-05-26T10:16:46.979Z,0.8
2019-05-26T10:17:26.991Z,1.4
2019-05-26T10:18:27.028Z,1.3
2019-05-26T10:19:27.045Z,1.5
2019-05-26T10:20:27.050Z,0.9
2019-05-26T10:21:47.079Z,0.9
2019-05-26T10:22:27.087Z,1.1
2019-05-26T10:23:27.105Z,0.8
2019-05-26T10:24:27.984Z,1.0
2019-05-26T10:25:27.147Z,0.8
2019-05-26T10:26:47.189Z,1.4
2019-05-26T10:27:27.217Z,0.8
2019-05-26T10:28:27.260Z,1.5
2019-05-26T10:29:27.401Z,2.0
2019-05-26T10:30:27.385Z,1.4
2019-05-26T10:31:47.420Z,1.1
2019-05-26T10:32:27.409Z,0.9
2019-05-26T10:33:27.486Z,0.8
2019-05-26T10:34:27.530Z,1.0
2019-05-26T10:35:27.522Z,1.5
2019-05-26T10:36:47.552Z,0.8
2019-05-26T10:37:27.551Z,1.0
2019-05-26T10:38:27.570Z,1.6
2019-05-26T10:39:27.656Z,1.6
2019-05-26T10:40:27.625Z,0.9
2019-05-26T10:41:47.630Z,1.6
2019-05-26T10:45:57.750Z,0.6
2019-05-26T10:46:57.887Z,0.8
2019-05-26T10:50:57.901Z,0.8
2019-05-26T10:51:47.928Z,1.0
2019-05-26T10:55:58.202Z,2.2
2019-05-26T10:56:58.216Z,1.5
2019-05-26T10:58:39.271Z,1.2
2019-05-26T11:00:58.392Z,1.6
2019-05-26T11:01:48.340Z,1.6
2019-05-26T11:05:58.443Z,0.8
2019-05-26T11:06:58.442Z,0.7
2019-05-26T11:07:58.527Z,1.4
2019-05-26T11:08:58.501Z,1.4
2019-05-26T11:09:58.532Z,1.1
2019-05-26T11:10:58.545Z,0.8
2019-05-26T11:11:58.585Z,0.8
2019-05-26T11:13:18.634Z,0.8
2019-05-26T11:14:28.645Z,0.9
2019-05-26T11:15:28.713Z,1.0
2019-05-26T11:16:28.677Z,1.0
2019-05-26T11:17:48.684Z,1.3
2019-05-26T11:20:40.250Z,0.2
2019-05-26T11:22:58.759Z,1.1
2019-05-26T11:27:59.144Z,0.8
2019-05-26T11:31:40.396Z,0.4
2019-05-26T11:32:59.736Z,0.8
2019-05-26T11:36:29.306Z,0.9
2019-05-26T11:37:49.346Z,1.0
2019-05-26T11:42:59.466Z,0.8
2019-05-26T11:47:59.754Z,0.8
2019-05-26T11:48:49.799Z,0.8
2019-05-26T11:49:49.798Z,0.6
2019-05-26T11:50:49.855Z,0.8
2019-05-26T11:51:49.866Z,1.1
2019-05-26T11:53:49.887Z,0.4
2019-05-26T11:58:00.040Z,0.8
2019-05-26T11:58:49.991Z,0.9
2019-05-26T11:59:49.996Z,1.1
2019-05-26T12:00:50.021Z,1.4
2019-05-26T12:01:50.055Z,1.2
2019-05-26T12:03:50.193Z,0.9
2019-05-26T12:04:50.096Z,0.8
2019-05-26T12:05:50.109Z,1.1
2019-05-26T12:06:50.125Z,1.5
2019-05-26T12:09:00.298Z,1.2
2019-05-26T12:09:50.297Z,0.8
2019-05-26T12:10:50.386Z,0.9
2019-05-26T12:11:50.413Z,1.4
2019-05-26T12:13:50.475Z,0.8
2019-05-26T12:14:50.615Z,0.8
2019-05-26T12:15:50.508Z,1.1
2019-05-26T12:16:50.538Z,1.9
2019-05-26T12:19:00.621Z,1.7
2019-05-26T12:19:50.681Z,1.3
2019-05-26T12:20:50.690Z,1.2
2019-05-26T12:21:50.717Z,1.4
2019-05-26T12:23:54.560Z,1.1
2019-05-26T12:24:50.851Z,1.5
2019-05-26T12:25:52.055Z,1.4
2019-05-26T12:26:50.880Z,0.8
2019-05-26T12:29:00.932Z,0.9
2019-05-26T12:29:50.954Z,0.9
2019-05-26T12:30:50.988Z,1.3
2019-05-26T12:31:51.019Z,1.3
2019-05-26T12:33:51.052Z,0.8
2019-05-26T12:34:51.051Z,0.8
2019-05-26T12:35:51.072Z,2.2
2019-05-26T12:36:51.081Z,1.8
2019-05-26T12:39:01.108Z,0.8
2019-05-26T12:39:51.129Z,0.8
2019-05-26T12:40:51.135Z,0.9
2019-05-26T12:41:51.153Z,1.8
2019-05-26T12:43:51.256Z,1.6
2019-05-26T12:44:51.295Z,1.4
2019-05-26T12:46:51.344Z,1.1
2019-05-26T12:49:01.373Z,1.0
2019-05-26T12:49:51.401Z,2.0
2019-05-26T12:50:51.399Z,2.2
2019-05-26T12:51:51.451Z,0.8
2019-05-26T12:53:51.473Z,1.0
2019-05-26T12:54:51.531Z,1.3
2019-05-26T12:55:51.567Z,0.6
2019-05-26T12:56:51.532Z,1.0
2019-05-26T12:59:02.824Z,0.9
2019-05-26T12:59:51.604Z,0.8
2019-05-26T13:00:54.762Z,1.2
2019-05-26T13:01:51.653Z,0.8
2019-05-26T13:03:51.859Z,0.9
2019-05-26T13:04:51.849Z,1.6
2019-05-26T13:05:51.851Z,1.3
2019-05-26T13:06:51.881Z,0.6
2019-05-26T13:09:01.956Z,1.0
2019-05-26T13:09:53.051Z,1.0
2019-05-26T13:10:52.089Z,0.8
2019-05-26T13:11:52.106Z,1.6
2019-05-26T13:13:52.260Z,0.8
2019-05-26T13:15:04.900Z,1.1
2019-05-26T13:15:52.231Z,0.6
2019-05-26T13:16:52.247Z,1.0
2019-05-26T13:18:52.292Z,1.3
2019-05-26T13:19:52.290Z,1.2
2019-05-26T13:20:52.419Z,1.1
2019-05-26T13:21:52.315Z,1.4
2019-05-26T13:23:52.466Z,2.2
2019-05-26T13:24:52.387Z,1.7
2019-05-26T13:25:52.406Z,1.7
2019-05-26T13:26:52.436Z,1.7
2019-05-26T13:29:02.489Z,2.3
2019-05-26T13:29:52.502Z,1.0
2019-05-26T13:30:52.578Z,1.8
2019-05-26T13:33:52.631Z,1.7
2019-05-26T13:34:52.636Z,1.6
2019-05-26T13:35:52.662Z,1.1
2019-05-26T13:39:02.762Z,1.3
2019-05-26T13:39:52.896Z,1.1
2019-05-26T13:40:52.902Z,1.3
2019-05-26T13:43:14.020Z,1.1
2019-05-26T13:43:53.372Z,1.0
2019-05-26T13:44:53.324Z,1.3
2019-05-26T13:45:53.335Z,1.4
2019-05-26T13:49:03.469Z,0.8
2019-05-26T13:49:53.522Z,0.9
2019-05-26T13:50:53.518Z,0.9
2019-05-26T13:53:53.547Z,1.7
2019-05-26T13:54:53.578Z,1.3
2019-05-26T13:55:53.587Z,1.0
2019-05-26T13:59:03.675Z,1.4
2019-05-26T13:59:53.803Z,2.9
2019-05-26T14:00:53.719Z,1.7
2019-05-26T14:03:53.761Z,1.9
2019-05-26T14:04:53.830Z,1.1
2019-05-26T14:05:53.848Z,1.2
2019-05-26T14:09:03.950Z,0.6
2019-05-26T14:09:54.044Z,0.9
2019-05-26T14:10:54.035Z,0.8
2019-05-26T14:13:54.061Z,1.2
2019-05-26T14:14:54.081Z,1.3
2019-05-26T14:15:54.115Z,1.4
2019-05-26T14:19:04.186Z,1.2
2019-05-26T14:19:54.194Z,1.1
2019-05-26T14:20:54.199Z,1.2
2019-05-26T14:23:54.307Z,1.0
2019-05-26T14:24:54.477Z,0.9
2019-05-26T14:25:54.388Z,0.9
2019-05-26T14:28:15.338Z,1.4
2019-05-26T14:28:54.436Z,0.8
2019-05-26T14:29:54.452Z,0.8
2019-05-26T14:30:54.536Z,0.8
2019-05-26T14:33:54.563Z,0.9
2019-05-26T14:34:54.590Z,1.1
2019-05-26T14:35:54.598Z,1.4
2019-05-26T14:39:04.687Z,0.8
2019-05-26T14:39:55.580Z,0.9
2019-05-26T14:40:54.718Z,0.8
2019-05-26T14:43:54.837Z,0.9
2019-05-26T14:44:54.899Z,1.0
2019-05-26T14:45:55.047Z,1.1
2019-05-26T14:49:05.002Z,1.0
2019-05-26T14:49:55.035Z,1.4
2019-05-26T14:50:55.149Z,0.8
2019-05-26T14:53:55.162Z,1.6
2019-05-26T14:54:55.171Z,1.1
2019-05-26T14:55:55.220Z,0.8
2019-05-26T14:59:05.269Z,1.1
2019-05-26T14:59:55.299Z,1.4
2019-05-26T15:00:55.293Z,2.0
2019-05-26T15:03:55.334Z,1.0
2019-05-26T15:04:55.363Z,1.1
2019-05-26T15:06:05.334Z,1.2
2019-05-26T15:08:05.495Z,1.3
2019-05-26T15:09:05.562Z,1.3
2019-05-26T15:10:05.603Z,1.8
2019-05-26T15:11:05.608Z,1.1
2019-05-26T15:13:56.124Z,1.0
2019-05-26T15:14:55.689Z,1.4
2019-05-26T15:16:08.590Z,1.2
2019-05-26T15:18:55.736Z,1.4
2019-05-26T15:19:55.746Z,1.4
2019-05-26T15:20:56.250Z,0.9
2019-05-26T15:23:55.779Z,0.8
2019-05-26T15:24:55.831Z,0.8
2019-05-26T15:25:55.824Z,1.3
2019-05-26T15:29:06.013Z,1.1
2019-05-26T15:30:06.004Z,1.2
2019-05-26T15:31:06.013Z,1.2
2019-05-26T15:32:26.032Z,1.6
2019-05-26T15:33:26.046Z,1.4
2019-05-26T15:34:26.052Z,1.1
2019-05-26T15:35:26.073Z,1.8
2019-05-26T15:36:26.081Z,1.2
2019-05-26T15:38:42.686Z,1.6
2019-05-26T15:39:36.105Z,0.9
2019-05-26T15:40:36.133Z,1.1
2019-05-26T15:41:56.179Z,1.1
2019-05-26T15:42:56.185Z,1.0
2019-05-26T15:43:36.197Z,1.0
2019-05-26T15:44:26.246Z,1.0
2019-05-26T15:45:26.215Z,0.4
2019-05-26T15:46:26.230Z,1.1
2019-05-26T15:48:36.263Z,0.9
2019-05-26T15:49:36.303Z,1.0
2019-05-26T15:50:36.344Z,1.0
2019-05-26T15:51:56.362Z,0.8
2019-05-26T15:52:56.383Z,0.8
2019-05-26T15:53:36.441Z,1.0
2019-05-26T15:54:26.402Z,1.1
2019-05-26T15:55:26.403Z,1.0
2019-05-26T15:56:26.422Z,0.9
2019-05-26T15:58:36.468Z,0.8
2019-05-26T15:59:36.484Z,1.1
2019-05-26T16:00:26.525Z,1.0
2019-05-26T16:01:26.561Z,0.9
2019-05-26T16:03:26.589Z,1.0
2019-05-26T16:04:26.605Z,1.1
2019-05-26T16:05:26.662Z,1.3
2019-05-26T16:06:26.698Z,1.6
2019-05-26T16:08:26.932Z,1.1
2019-05-26T16:09:26.844Z,1.0
2019-05-26T16:10:26.849Z,1.2
2019-05-26T16:11:26.880Z,0.8
2019-05-26T16:13:26.917Z,0.8
2019-05-26T16:14:56.940Z,1.2
2019-05-26T16:15:56.975Z,1.5
2019-05-26T16:18:07.021Z,0.8
2019-05-26T16:18:46.998Z,0.9
2019-05-26T16:22:07.052Z,0.8
2019-05-26T16:23:08.853Z,1.5
2019-05-26T16:27:18.478Z,0.6
2019-05-26T16:32:07.405Z,0.8
2019-05-26T16:33:07.424Z,0.8
2019-05-26T16:37:07.498Z,0.9
2019-05-26T16:38:07.516Z,0.6
2019-05-26T16:42:07.690Z,0.8
2019-05-26T16:43:07.750Z,0.8
2019-05-26T16:47:07.849Z,0.8
2019-05-26T16:52:07.988Z,1.0
2019-05-26T16:57:08.067Z,0.7
2019-05-26T17:02:08.370Z,0.4
2019-05-26T17:07:08.418Z,0.8
2019-05-26T17:12:08.507Z,0.9
2019-05-26T17:17:14.507Z,0.8
2019-05-26T17:22:08.755Z,0.8
2019-05-26T17:24:39.960Z,0.4
2019-05-26T17:25:38.826Z,0.8
2019-05-26T17:26:58.849Z,0.2
2019-05-26T17:32:08.963Z,0.0
2019-05-26T17:37:09.097Z,0.0
2019-05-26T17:41:59.221Z,0.0
2019-05-26T17:46:59.330Z,0.0
2019-05-26T17:51:59.430Z,0.0
2019-05-26T17:56:59.515Z,0.0
2019-05-26T17:57:50.677Z,0.0
2019-05-26T18:01:59.625Z,0.0
2019-05-26T18:06:59.737Z,0.0
2019-05-26T18:09:50.794Z,0.0
2019-05-26T18:11:59.849Z,0.0
2019-05-26T18:16:59.929Z,0.0
2019-05-26T18:22:00.015Z,0.0
2019-05-26T18:27:00.087Z,0.0
2019-05-26T18:32:00.508Z,0.0
2019-05-26T18:37:10.241Z,0.0
2019-05-26T18:38:40.274Z,0.0
2019-05-26T18:39:40.308Z,0.0
2019-05-26T18:40:40.293Z,0.0
2019-05-26T18:42:00.314Z,0.0
2019-05-26T18:42:50.511Z,0.0
2019-05-26T18:43:51.452Z,0.0
2019-05-26T18:46:10.398Z,0.0
2019-05-26T18:47:10.412Z,0.0
2019-05-26T18:51:10.506Z,0.0
2019-05-26T18:52:10.526Z,0.0
2019-05-26T18:57:10.714Z,0.0
2019-05-26T19:02:10.850Z,0.0
2019-05-26T19:07:10.933Z,0.0
2019-05-26T19:09:40.994Z,0.0
2019-05-26T19:10:40.985Z,0.0
2019-05-26T19:12:01.004Z,0.0
2019-05-26T19:17:01.189Z,0.0
2019-05-26T19:18:51.338Z,0.0
2019-05-26T19:19:51.357Z,0.0
2019-05-26T19:20:51.378Z,0.0
2019-05-26T19:22:01.427Z,0.0
2019-05-26T19:22:53.350Z,0.0
2019-05-26T19:23:51.451Z,0.0
2019-05-26T19:24:51.464Z,0.0
2019-05-26T19:25:51.476Z,0.0
2019-05-26T19:27:01.499Z,0.0
2019-05-26T19:27:51.508Z,0.0
2019-05-26T19:28:51.527Z,0.0
2019-05-26T19:29:51.565Z,0.0
2019-05-26T19:30:51.588Z,0.0
2019-05-26T19:32:01.593Z,0.0
2019-05-26T19:32:51.623Z,0.0
2019-05-26T19:33:51.694Z,0.0
2019-05-26T19:34:51.688Z,0.0
2019-05-26T19:35:51.701Z,0.0
2019-05-26T19:37:01.740Z,0.0
2019-05-26T19:37:51.808Z,0.0
2019-05-26T19:38:51.794Z,0.0
2019-05-26T19:40:51.846Z,0.0
2019-05-26T19:42:01.863Z,0.0
2019-05-26T19:42:51.869Z,0.0
2019-05-26T19:43:51.892Z,0.0
2019-05-26T19:44:51.905Z,0.0
2019-05-26T19:45:51.910Z,0.0
2019-05-26T19:47:01.918Z,0.0
2019-05-26T19:49:52.020Z,0.0
2019-05-26T19:50:52.034Z,0.0
2019-05-26T19:52:02.042Z,0.0
2019-05-26T19:57:02.127Z,0.0
2019-05-26T20:02:17.231Z,0.0
2019-05-26T20:03:02.279Z,0.0
2019-05-26T20:12:02.463Z,0.0
2019-05-26T20:17:02.597Z,0.0
2019-05-26T20:22:02.698Z,0.0
2019-05-26T20:27:02.785Z,0.0
2019-05-26T20:35:42.963Z,0.0
2019-05-26T20:42:03.086Z,0.0
2019-05-26T20:52:03.220Z,0.0
2019-05-26T20:56:03.307Z,0.8
2019-05-26T20:57:03.334Z,0.8
2019-05-26T21:01:03.410Z,0.4
2019-05-26T21:02:03.427Z,0.8
2019-05-26T21:06:03.641Z,0.0
2019-05-26T21:07:03.651Z,0.0
2019-05-26T21:08:03.536Z,0.0
2019-05-26T21:11:03.661Z,0.8
2019-05-26T21:12:03.674Z,0.8
2019-05-26T21:16:03.806Z,0.8
2019-05-26T21:17:03.850Z,0.8
2019-05-26T21:21:03.964Z,0.8
2019-05-26T21:22:03.978Z,0.2
2019-05-26T21:23:04.003Z,0.0
2019-05-26T21:24:04.000Z,0.0
2019-05-26T21:25:04.009Z,0.0
2019-05-26T21:26:14.059Z,0.0
2019-05-26T21:27:14.060Z,0.0
2019-05-26T21:31:04.166Z,0.0
2019-05-26T21:32:04.188Z,0.0
2019-05-26T21:36:04.402Z,0.0
2019-05-26T21:37:04.379Z,0.0
2019-05-26T21:39:55.655Z,0.0
2019-05-26T21:41:04.517Z,0.0
2019-05-26T21:42:04.509Z,0.0
2019-05-26T21:46:04.567Z,0.2
2019-05-26T21:47:04.579Z,0.0
2019-05-26T21:48:04.616Z,0.0
2019-05-26T21:49:04.646Z,0.0
2019-05-26T21:50:04.671Z,0.0
2019-05-26T21:51:04.688Z,0.0
2019-05-26T21:52:04.706Z,0.0
2019-05-26T21:53:04.899Z,0.0
2019-05-26T21:54:04.742Z,0.0
2019-05-26T21:55:04.749Z,0.0
2019-05-26T21:56:14.795Z,0.0
2019-05-26T21:57:14.814Z,0.0
2019-05-26T21:58:04.827Z,0.0
2019-05-26T21:59:04.831Z,0.0
2019-05-26T22:00:04.840Z,0.0
2019-05-26T22:01:15.035Z,0.0
2019-05-26T22:02:14.965Z,0.0
2019-05-26T22:03:04.949Z,0.0
2019-05-26T22:04:04.961Z,0.0
2019-05-26T22:05:05.168Z,0.8
2019-05-26T22:06:15.061Z,0.6
2019-05-26T22:07:15.087Z,0.0
2019-05-26T22:08:05.133Z,0.6
2019-05-26T22:09:05.326Z,0.0
2019-05-26T22:10:05.239Z,0.0
2019-05-26T22:11:15.281Z,0.0
2019-05-26T22:12:16.112Z,0.0
2019-05-26T22:13:05.387Z,0.0
2019-05-26T22:14:05.447Z,0.0
2019-05-26T22:15:05.460Z,0.0
2019-05-26T22:16:15.496Z,0.0
2019-05-26T22:17:05.629Z,0.0
2019-05-26T22:21:05.557Z,0.0
2019-05-26T22:22:05.608Z,0.0
2019-05-26T22:26:05.643Z,0.0
2019-05-26T22:27:05.718Z,0.0
2019-05-26T22:31:05.793Z,0.0
2019-05-26T22:32:05.795Z,0.0
2019-05-26T22:36:05.912Z,0.0
2019-05-26T22:37:05.971Z,0.0
2019-05-26T22:41:06.076Z,0.0
2019-05-26T22:42:06.091Z,0.0
2019-05-26T22:46:06.249Z,0.0
2019-05-26T22:47:06.275Z,0.0
2019-05-26T22:48:06.375Z,0.0
2019-05-26T22:49:06.403Z,0.0
2019-05-26T22:50:06.411Z,0.0
2019-05-26T22:51:16.468Z,0.0
2019-05-26T22:52:17.717Z,0.0
2019-05-26T22:56:07.528Z,0.0
2019-05-26T22:57:06.692Z,0.0
2019-05-26T23:01:06.740Z,0.0
2019-05-26T23:02:06.755Z,0.0
2019-05-26T23:06:06.851Z,0.0
2019-05-26T23:07:07.043Z,0.0
2019-05-26T23:07:56.928Z,0.0
2019-05-26T23:11:07.000Z,0.0
2019-05-26T23:12:07.074Z,0.0
2019-05-26T23:13:07.105Z,0.0
2019-05-26T23:14:07.106Z,0.0